Dan Fighter — OVUE2 — position and weather

sailwx.info

Track history (hours):
 
Tides and Currents Weather Stations Pressure Air Temp Water Temp Dewpoint Dewpoint Depression Visibility Wind Speed Wind Dir Waves Ship Positions

Dan Fighter

Last reported at 2016-Dec-10 04:22 UTC. Time now 2016-Dec-10 05:09 UTC.
Position N 39°37' W 000°10'.

Length 64 m; draft 3.1 m.

Type: Cargo ship. MMSI: 220386978.

Date/timePositionNaut miles runAvg speedWind from/ knotsBaromVisibWave heightAir tempDewpointWater temp
2016-Dec-10 04:22N 39°37' W 000°10'0 0.0
2016-Dec-10 03:31N 39°37' W 000°10'0 0.0
2016-Dec-10 02:28N 39°37' W 000°10'0 0.0
2016-Dec-10 01:31N 39°37' W 000°10'0 0.0
2016-Dec-10 00:28N 39°37' W 000°09'0 0.0
2016-Dec-09 23:16N 39°37' W 000°09'0 0.0
2016-Dec-09 22:28N 39°37' W 000°09'0 0.0
2016-Dec-09 19:28N 39°37' W 000°09'0 0.0
2016-Dec-09 16:22N 39°37' W 000°10'0 0.0
2016-Dec-09 15:04N 39°37' W 000°10'0 0.0
2016-Dec-09 09:28N 39°37' W 000°10'0 0.0
2016-Dec-09 08:28N 39°37' W 000°10'0 0.0
2016-Dec-09 07:22N 39°37' W 000°10'0 0.0
2016-Dec-09 06:31N 39°37' W 000°10'0 0.0
2016-Dec-09 05:25N 39°37' W 000°10'0 0.0
2016-Dec-09 04:28N 39°37' W 000°10'0 0.0
2016-Dec-09 03:28N 39°37' W 000°10'0 0.0
2016-Dec-09 02:31N 39°36' W 000°10'0 0.0
2016-Dec-09 01:25N 39°36' W 000°10'0 0.0
2016-Dec-08 18:31N 39°36' W 000°10'0 0.0
2016-Dec-08 16:22N 39°37' W 000°10'0 0.0
2016-Dec-08 15:33N 39°37' W 000°10'70 8.7
2016-Dec-08 07:30N 39°15' E 001°16'9 9.2
2016-Dec-08 06:32N 39°12' E 001°27'9 9.4
2016-Dec-08 05:33N 39°10' E 001°39'9 9.5
2016-Dec-08 04:33N 39°07' E 001°51'9 9.3
2016-Dec-08 03:33N 39°05' E 002°02'9 9.3
2016-Dec-08 02:33N 39°02' E 002°14'9 9.4
2016-Dec-08 01:33N 39°00' E 002°25'10 9.5
2016-Dec-08 00:33N 38°59' E 002°38'10 9.6
2016-Dec-07 23:33N 38°58' E 002°50'9 9.5
2016-Dec-07 22:33N 38°57' E 003°02'9 9.3
2016-Dec-07 21:33N 38°56' E 003°14'9 9.3
2016-Dec-07 20:33N 38°55' E 003°26'11 9.3
2016-Dec-07 19:23N 38°55' E 003°40'440 9.4
2016-Dec-05 20:32N 38°17' E 013°01'9 9.3
2016-Dec-05 19:33N 38°17' E 013°12'9 8.6
2016-Dec-05 18:33N 38°15' E 013°23'7 7.2
2016-Dec-05 17:33N 38°08' E 013°23'1 0.5
2016-Dec-05 16:33N 38°08' E 013°22'0 0.0
2016-Dec-05 15:33N 38°08' E 013°22'0 0.0
2016-Dec-05 14:33N 38°08' E 013°22'0 0.0
2016-Dec-05 13:33N 38°08' E 013°22'0 0.0
2016-Dec-05 12:33N 38°08' E 013°22'0 0.0
2016-Dec-05 11:33N 38°08' E 013°22'0 0.0
2016-Dec-05 10:33N 38°08' E 013°22'0 0.0
2016-Dec-05 09:33N 38°08' E 013°22'1 1.1
2016-Dec-05 08:33N 38°08' E 013°24'4 3.6
2016-Dec-05 07:33N 38°12' E 013°24'0 0.4
2016-Dec-05 06:33N 38°12' E 013°24'0 0.2
2016-Dec-05 05:33N 38°12' E 013°24'2 2.3
2016-Dec-05 04:33N 38°10' E 013°25'4 3.9
2016-Dec-05 03:33N 38°13' E 013°25'0 0.1
2016-Dec-05 02:33N 38°13' E 013°25'0 0.2
2016-Dec-05 01:33N 38°13' E 013°25'3 3.4
2016-Dec-05 00:34N 38°16' E 013°23'9 9.2
2016-Dec-04 23:33N 38°15' E 013°11'10 9.7
2016-Dec-04 22:33N 38°14' E 012°59'  
Track history (hours):
 
Tides and Currents Weather Stations Pressure Air Temp Water Temp Dewpoint Dewpoint Depression Visibility Wind Speed Wind Dir Waves Ship Positions

Dan Fighter

Last reported at 2016-Dec-10 04:22 UTC. Time now 2016-Dec-10 05:09 UTC.
Position N 39°37' W 000°10'.

Length 64 m; draft 3.1 m.

Type: Cargo ship. MMSI: 220386978.

Date/timePositionNaut miles runAvg speedWind from/ knotsBaromVisibWave heightAir tempDewpointWater temp
2016-Dec-10 04:22N 39°37' W 000°10'0 0.0
2016-Dec-10 03:31N 39°37' W 000°10'0 0.0
2016-Dec-10 02:28N 39°37' W 000°10'0 0.0
2016-Dec-10 01:31N 39°37' W 000°10'0 0.0
2016-Dec-10 00:28N 39°37' W 000°09'0 0.0
2016-Dec-09 23:16N 39°37' W 000°09'0 0.0
2016-Dec-09 22:28N 39°37' W 000°09'0 0.0
2016-Dec-09 19:28N 39°37' W 000°09'0 0.0
2016-Dec-09 16:22N 39°37' W 000°10'0 0.0
2016-Dec-09 15:04N 39°37' W 000°10'0 0.0
2016-Dec-09 09:28N 39°37' W 000°10'0 0.0
2016-Dec-09 08:28N 39°37' W 000°10'0 0.0
2016-Dec-09 07:22N 39°37' W 000°10'0 0.0
2016-Dec-09 06:31N 39°37' W 000°10'0 0.0
2016-Dec-09 05:25N 39°37' W 000°10'0 0.0
2016-Dec-09 04:28N 39°37' W 000°10'0 0.0
2016-Dec-09 03:28N 39°37' W 000°10'0 0.0
2016-Dec-09 02:31N 39°36' W 000°10'0 0.0
2016-Dec-09 01:25N 39°36' W 000°10'0 0.0
2016-Dec-08 18:31N 39°36' W 000°10'0 0.0
2016-Dec-08 16:22N 39°37' W 000°10'0 0.0
2016-Dec-08 15:33N 39°37' W 000°10'70 8.7
2016-Dec-08 07:30N 39°15' E 001°16'9 9.2
2016-Dec-08 06:32N 39°12' E 001°27'9 9.4
2016-Dec-08 05:33N 39°10' E 001°39'9 9.5
2016-Dec-08 04:33N 39°07' E 001°51'9 9.3
2016-Dec-08 03:33N 39°05' E 002°02'9 9.3
2016-Dec-08 02:33N 39°02' E 002°14'9 9.4
2016-Dec-08 01:33N 39°00' E 002°25'10 9.5
2016-Dec-08 00:33N 38°59' E 002°38'10 9.6
2016-Dec-07 23:33N 38°58' E 002°50'9 9.5
2016-Dec-07 22:33N 38°57' E 003°02'9 9.3
2016-Dec-07 21:33N 38°56' E 003°14'9 9.3
2016-Dec-07 20:33N 38°55' E 003°26'11 9.3
2016-Dec-07 19:23N 38°55' E 003°40'440 9.4
2016-Dec-05 20:32N 38°17' E 013°01'9 9.3
2016-Dec-05 19:33N 38°17' E 013°12'9 8.6
2016-Dec-05 18:33N 38°15' E 013°23'7 7.2
2016-Dec-05 17:33N 38°08' E 013°23'1 0.5
2016-Dec-05 16:33N 38°08' E 013°22'0 0.0
2016-Dec-05 15:33N 38°08' E 013°22'0 0.0
2016-Dec-05 14:33N 38°08' E 013°22'0 0.0
2016-Dec-05 13:33N 38°08' E 013°22'0 0.0
2016-Dec-05 12:33N 38°08' E 013°22'0 0.0
2016-Dec-05 11:33N 38°08' E 013°22'0 0.0
2016-Dec-05 10:33N 38°08' E 013°22'0 0.0
2016-Dec-05 09:33N 38°08' E 013°22'1 1.1
2016-Dec-05 08:33N 38°08' E 013°24'4 3.6
2016-Dec-05 07:33N 38°12' E 013°24'0 0.4
2016-Dec-05 06:33N 38°12' E 013°24'0 0.2
2016-Dec-05 05:33N 38°12' E 013°24'2 2.3
2016-Dec-05 04:33N 38°10' E 013°25'4 3.9
2016-Dec-05 03:33N 38°13' E 013°25'0 0.1
2016-Dec-05 02:33N 38°13' E 013°25'0 0.2
2016-Dec-05 01:33N 38°13' E 013°25'3 3.4
2016-Dec-05 00:34N 38°16' E 013°23'9 9.2
2016-Dec-04 23:33N 38°15' E 013°11'10 9.7
2016-Dec-04 22:33N 38°14' E 012°59'  

Dump ship's entire track history